Time;durP1;ratioP1;P1;durP2;ratioP2;P2;SDS_P1;SDS_P2;PMS_P1;PMS_P2;Temp;Humidity;BMP_temperature;BMP_pressure;BME280_temperature;BME280_humidity;BME280_pressure;Samples;Min_cycle;Max_cycle;Signal;HPM_P1;HPM_P2
2021/06/10 00:02:16;;;;;;;7.35;6.80;;;;;;;;;;5071007;28;20017;-60
2021/06/10 00:04:42;;;;;;;8.05;7.25;;;;;;;;;;5071627;28;20032;-60
2021/06/10 00:07:07;;;;;;;7.28;6.57;;;;;;;;;;5070341;28;20013;-60
2021/06/10 00:09:32;;;;;;;8.57;7.75;;;;;;;;;;5072259;28;20013;-60
2021/06/10 00:11:57;;;;;;;7.88;7.28;;;;;;;;;;5072001;28;20031;-61
2021/06/10 00:14:23;;;;;;;8.27;7.38;;;;;;;;;;5073163;28;20023;-61
2021/06/10 00:16:48;;;;;;;8.05;7.25;;;;;;;;;;5071330;28;20074;-61
2021/06/10 00:19:13;;;;;;;8.77;7.80;;;;;;;;;;5071654;28;20027;-61
2021/06/10 00:21:39;;;;;;;8.93;8.02;;;;;;;;;;5069910;28;20020;-61
2021/06/10 00:24:05;;;;;;;8.60;7.80;;;;;;;;;;5073479;28;20027;-61
2021/06/10 00:26:30;;;;;;;8.50;7.80;;;;;;;;;;5072166;28;20008;-61
2021/06/10 00:28:55;;;;;;;8.48;7.78;;;;;;;;;;5068706;28;20476;-61
2021/06/10 00:31:21;;;;;;;8.60;7.90;;;;;;;;;;5073756;28;20087;-61
2021/06/10 00:33:46;;;;;;;8.82;8.10;;;;;;;;;;5070885;28;20595;-61
2021/06/10 00:36:11;;;;;;;9.18;8.43;;;;;;;;;;5086967;28;20391;-61
2021/06/10 00:38:36;;;;;;;8.95;8.13;;;;;;;;;;5068201;28;20361;-60
2021/06/10 00:41:02;;;;;;;8.40;7.63;;;;;;;;;;5072486;28;20033;-61
2021/06/10 00:43:27;;;;;;;7.88;7.07;;;;;;;;;;5073387;28;20031;-60
2021/06/10 00:45:53;;;;;;;7.72;7.03;;;;;;;;;;5054796;28;20028;-61
2021/06/10 00:48:18;;;;;;;7.30;6.70;;;;;;;;;;5070401;28;20021;-61
2021/06/10 00:50:45;;;;;;;7.47;6.75;;;;;;;;;;5071273;28;20020;-61
2021/06/10 00:53:21;;;;;;;7.20;6.55;;;;;;;;;;5071462;28;20025;-61
2021/06/10 00:55:47;;;;;;;7.78;7.03;;;;;;;;;;5071131;28;20569;-61
2021/06/10 00:58:12;;;;;;;7.53;6.93;;;;;;;;;;5069295;28;20111;-61
2021/06/10 01:00:37;;;;;;;7.65;6.95;;;;;;;;;;5070979;28;20383;-61
2021/06/10 01:03:03;;;;;;;6.57;6.07;;;;;;;;;;5070488;28;20016;-61
2021/06/10 01:05:28;;;;;;;7.32;6.60;;;;;;;;;;5072898;28;20028;-61
2021/06/10 01:08:06;;;;;;;6.78;6.18;;;;;;;;;;5067941;28;20461;-61
2021/06/10 01:10:43;;;;;;;6.80;6.30;;;;;;;;;;5070052;28;20031;-61
2021/06/10 01:13:11;;;;;;;6.78;6.13;;;;;;;;;;5068651;28;20030;-61
2021/06/10 01:15:39;;;;;;;6.38;5.88;;;;;;;;;;5071490;28;20360;-61
2021/06/10 01:18:05;;;;;;;6.32;5.78;;;;;;;;;;5068901;28;20028;-61
2021/06/10 01:20:30;;;;;;;6.47;5.88;;;;;;;;;;5070596;28;20082;-61
2021/06/10 01:22:56;;;;;;;6.85;5.65;;;;;;;;;;5105002;28;20024;-61
2021/06/10 01:25:37;;;;;;;6.90;6.30;;;;;;;;;;5072412;28;20467;-61
2021/06/10 01:28:11;;;;;;;7.50;5.88;;;;;;;;;;5066176;28;20013;-61
2021/06/10 01:30:42;;;;;;;6.45;5.93;;;;;;;;;;5070642;28;20020;-61
2021/06/10 01:33:11;;;;;;;6.78;6.20;;;;;;;;;;5069827;28;20016;-61
2021/06/10 01:35:39;;;;;;;7.32;6.63;;;;;;;;;;5086540;28;20020;-61
2021/06/10 01:38:05;;;;;;;7.05;6.45;;;;;;;;;;5068172;28;20020;-61
2021/06/10 01:40:31;;;;;;;6.60;5.90;;;;;;;;;;5071161;28;20569;-61
2021/06/10 01:42:57;;;;;;;6.70;6.10;;;;;;;;;;5069418;28;20369;-60
2021/06/10 01:45:22;;;;;;;6.68;5.93;;;;;;;;;;5072487;28;20436;-61
2021/06/10 01:47:48;;;;;;;6.65;6.15;;;;;;;;;;5067547;28;20499;-61
2021/06/10 01:50:15;;;;;;;7.20;6.50;;;;;;;;;;5072334;28;20051;-61
2021/06/10 01:52:41;;;;;;;6.47;5.97;;;;;;;;;;5069799;28;20434;-61
2021/06/10 01:55:07;;;;;;;6.68;6.18;;;;;;;;;;5071266;28;20025;-61
2021/06/10 01:57:33;;;;;;;7.35;6.65;;;;;;;;;;5068400;28;20025;-61
2021/06/10 01:59:59;;;;;;;8.57;7.65;;;;;;;;;;5069956;28;20112;-61
2021/06/10 02:02:25;;;;;;;9.30;8.10;;;;;;;;;;5068136;28;20112;-61
2021/06/10 02:04:50;;;;;;;9.10;8.30;;;;;;;;;;5069724;28;20485;-61
2021/06/10 02:07:16;;;;;;;9.15;8.23;;;;;;;;;;5066959;28;20013;-60
2021/06/10 02:09:42;;;;;;;9.35;8.43;;;;;;;;;;5071617;28;20020;-61
2021/06/10 02:12:08;;;;;;;10.88;8.23;;;;;;;;;;5069556;28;20077;-61
2021/06/10 02:14:33;;;;;;;9.20;8.43;;;;;;;;;;5070230;28;20029;-60
2021/06/10 02:16:59;;;;;;;8.65;7.80;;;;;;;;;;5066757;28;20036;-60
2021/06/10 02:19:24;;;;;;;8.90;8.02;;;;;;;;;;5070836;28;20024;-61
2021/06/10 02:21:50;;;;;;;8.60;7.75;;;;;;;;;;5066801;28;20146;-61
2021/06/10 02:24:15;;;;;;;7.55;6.95;;;;;;;;;;5067058;28;20429;-61
2021/06/10 02:26:41;;;;;;;8.27;7.47;;;;;;;;;;5066248;28;20048;-61
2021/06/10 02:29:07;;;;;;;8.90;8.07;;;;;;;;;;5065222;28;20586;-61
2021/06/10 02:31:33;;;;;;;8.93;8.20;;;;;;;;;;5061975;28;20023;-60
2021/06/10 02:33:58;;;;;;;8.32;7.60;;;;;;;;;;5067095;28;20023;-59
2021/06/10 02:36:23;;;;;;;9.15;7.65;;;;;;;;;;5055402;28;20029;-60
2021/06/10 02:38:54;;;;;;;8.95;8.13;;;;;;;;;;5058341;28;20048;-60
2021/06/10 02:41:20;;;;;;;10.80;8.00;;;;;;;;;;5067322;28;20027;-60
2021/06/10 02:43:47;;;;;;;8.02;7.40;;;;;;;;;;5067778;28;20043;-60
2021/06/10 02:46:14;;;;;;;7.60;6.90;;;;;;;;;;5070272;28;20131;-59
2021/06/10 02:48:40;;;;;;;8.77;7.88;;;;;;;;;;5072680;28;20024;-60
2021/06/10 02:51:06;;;;;;;9.98;9.00;;;;;;;;;;5073497;28;20008;-60
2021/06/10 02:53:32;;;;;;;9.15;8.25;;;;;;;;;;5058099;28;20036;-60
2021/06/10 02:55:59;;;;;;;9.55;8.75;;;;;;;;;;5071256;28;20036;-60
2021/06/10 02:58:24;;;;;;;8.68;7.93;;;;;;;;;;5069721;28;20020;-60
2021/06/10 03:00:50;;;;;;;8.98;8.25;;;;;;;;;;5067546;28;20031;-60
2021/06/10 03:03:15;;;;;;;10.63;8.80;;;;;;;;;;5069004;28;20016;-60
2021/06/10 03:05:41;;;;;;;9.07;8.20;;;;;;;;;;5068924;28;20431;-60
2021/06/10 03:08:07;;;;;;;8.73;7.38;;;;;;;;;;5068208;28;20017;-60
2021/06/10 03:10:33;;;;;;;8.05;7.35;;;;;;;;;;5069526;28;20464;-58
2021/06/10 03:12:59;;;;;;;8.88;7.97;;;;;;;;;;5069705;28;20031;-59
2021/06/10 03:15:25;;;;;;;10.30;9.10;;;;;;;;;;5073420;28;20490;-60
2021/06/10 03:17:50;;;;;;;8.38;7.68;;;;;;;;;;5067708;28;20123;-60
2021/06/10 03:20:16;;;;;;;9.25;8.45;;;;;;;;;;5074127;28;20111;-60
2021/06/10 03:22:41;;;;;;;9.63;8.60;;;;;;;;;;5074115;28;20032;-60
2021/06/10 03:25:07;;;;;;;11.02;10.07;;;;;;;;;;5072518;28;20039;-61
2021/06/10 03:27:33;;;;;;;9.65;8.77;;;;;;;;;;5068903;28;20020;-60
2021/06/10 03:29:59;;;;;;;9.18;8.35;;;;;;;;;;5073284;28;20017;-60
2021/06/10 03:32:25;;;;;;;9.13;8.32;;;;;;;;;;5072173;28;20032;-60
2021/06/10 03:34:51;;;;;;;8.68;7.97;;;;;;;;;;5103777;27;20464;-60
2021/06/10 03:37:16;;;;;;;8.38;7.65;;;;;;;;;;5068097;28;20188;-60
2021/06/10 03:39:42;;;;;;;7.75;6.93;;;;;;;;;;5105387;27;20099;-60
2021/06/10 03:42:07;;;;;;;7.88;7.28;;;;;;;;;;5069408;28;20107;-60
2021/06/10 03:44:33;;;;;;;7.22;6.65;;;;;;;;;;5069510;28;20039;-59
2021/06/10 03:46:59;;;;;;;7.72;7.10;;;;;;;;;;5099916;28;20012;-60
2021/06/10 03:49:24;;;;;;;6.82;6.25;;;;;;;;;;5070875;28;20047;-61
2021/06/10 03:51:50;;;;;;;6.50;6.00;;;;;;;;;;5072855;28;20368;-61
2021/06/10 03:54:16;;;;;;;6.40;5.90;;;;;;;;;;5074344;28;20070;-61
2021/06/10 03:56:41;;;;;;;7.38;6.68;;;;;;;;;;5066460;28;20066;-61
2021/06/10 03:59:06;;;;;;;7.38;6.68;;;;;;;;;;5069729;28;20020;-61
2021/06/10 04:01:32;;;;;;;6.65;5.95;;;;;;;;;;5069005;28;20024;-61
2021/06/10 04:03:57;;;;;;;6.55;5.63;;;;;;;;;;5070144;28;20097;-61
2021/06/10 04:06:29;;;;;;;5.95;5.45;;;;;;;;;;5070368;28;20067;-61
2021/06/10 04:08:55;;;;;;;6.70;5.85;;;;;;;;;;5070132;28;20020;-61
2021/06/10 04:11:20;;;;;;;5.70;5.20;;;;;;;;;;5072548;28;20066;-60
2021/06/10 04:13:45;;;;;;;6.20;5.47;;;;;;;;;;5073261;28;20248;-61
2021/06/10 04:16:10;;;;;;;5.57;5.07;;;;;;;;;;5072746;28;20082;-61
2021/06/10 04:18:36;;;;;;;6.03;5.55;;;;;;;;;;5069033;28;20018;-61
2021/06/10 04:21:01;;;;;;;5.63;5.20;;;;;;;;;;5073700;28;20093;-61
2021/06/10 04:23:26;;;;;;;6.35;5.85;;;;;;;;;;5073446;28;20099;-61
2021/06/10 04:25:51;;;;;;;7.35;5.95;;;;;;;;;;5073511;28;20032;-61
2021/06/10 04:28:16;;;;;;;6.47;5.88;;;;;;;;;;5070500;28;20028;-61
2021/06/10 04:30:42;;;;;;;7.20;6.50;;;;;;;;;;5072560;28;20031;-61
2021/06/10 04:33:07;;;;;;;7.45;6.72;;;;;;;;;;5081142;28;20027;-61
2021/06/10 04:35:32;;;;;;;9.63;8.63;;;;;;;;;;5090641;28;20028;-61
2021/06/10 04:37:57;;;;;;;9.15;8.25;;;;;;;;;;5076098;28;20024;-59
2021/06/10 04:40:23;;;;;;;14.20;9.48;;;;;;;;;;5073104;28;20052;-61
2021/06/10 04:42:48;;;;;;;10.88;9.90;;;;;;;;;;5073322;28;20043;-60
2021/06/10 04:45:13;;;;;;;10.88;9.98;;;;;;;;;;5071698;28;20032;-61
2021/06/10 04:47:38;;;;;;;11.43;10.35;;;;;;;;;;5070415;28;20021;-61
2021/06/10 04:50:04;;;;;;;11.20;10.20;;;;;;;;;;5071160;28;20023;-61
2021/06/10 04:52:29;;;;;;;11.82;10.73;;;;;;;;;;5072717;28;20028;-60
2021/06/10 04:54:55;;;;;;;11.93;10.23;;;;;;;;;;5073108;28;20012;-61
2021/06/10 04:57:20;;;;;;;12.68;11.40;;;;;;;;;;5069470;28;20029;-58
2021/06/10 04:59:45;;;;;;;11.80;10.80;;;;;;;;;;5059311;28;20044;-61
2021/06/10 05:02:10;;;;;;;12.38;10.20;;;;;;;;;;5072164;28;20024;-61
2021/06/10 05:04:36;;;;;;;10.95;9.68;;;;;;;;;;5071158;28;20369;-60
2021/06/10 05:07:01;;;;;;;11.85;10.85;;;;;;;;;;5068392;28;20020;-61
2021/06/10 05:09:26;;;;;;;12.10;10.90;;;;;;;;;;5109689;27;20039;-61
2021/06/10 05:11:51;;;;;;;12.63;11.32;;;;;;;;;;5072702;28;20028;-61
2021/06/10 05:14:18;;;;;;;14.02;12.73;;;;;;;;;;5072048;28;20024;-61
2021/06/10 05:16:47;;;;;;;14.75;13.45;;;;;;;;;;5070282;28;20020;-61
2021/06/10 05:19:12;;;;;;;14.10;12.82;;;;;;;;;;5072519;28;20357;-61
2021/06/10 05:21:38;;;;;;;14.05;12.75;;;;;;;;;;5072305;28;20025;-61
2021/06/10 05:24:05;;;;;;;13.98;12.68;;;;;;;;;;5071212;28;20051;-61
2021/06/10 05:26:31;;;;;;;13.65;12.25;;;;;;;;;;5071181;28;20080;-60
2021/06/10 05:28:56;;;;;;;14.15;12.75;;;;;;;;;;5069902;28;20025;-60
2021/06/10 05:31:22;;;;;;;14.30;13.10;;;;;;;;;;5071761;28;20101;-60
2021/06/10 05:33:50;;;;;;;13.80;12.38;;;;;;;;;;5072276;28;20412;-61
2021/06/10 05:36:15;;;;;;;14.70;13.30;;;;;;;;;;5067718;28;20070;-60
2021/06/10 05:38:40;;;;;;;14.60;12.82;;;;;;;;;;5054970;28;20021;-61
2021/06/10 05:41:05;;;;;;;14.63;13.23;;;;;;;;;;5069409;28;20078;-60
2021/06/10 05:43:31;;;;;;;14.38;13.07;;;;;;;;;;5070633;28;20030;-60
2021/06/10 05:45:56;;;;;;;15.70;14.30;;;;;;;;;;5075601;28;20377;-61
2021/06/10 05:48:21;;;;;;;15.15;13.60;;;;;;;;;;5070573;28;20021;-60
2021/06/10 05:50:47;;;;;;;15.60;14.00;;;;;;;;;;5070721;28;20048;-60
2021/06/10 05:53:15;;;;;;;14.73;13.35;;;;;;;;;;5087854;28;20050;-60
2021/06/10 05:55:40;;;;;;;15.18;13.65;;;;;;;;;;5058279;28;20172;-61
2021/06/10 05:58:05;;;;;;;13.40;12.20;;;;;;;;;;5064797;28;20191;-60
2021/06/10 06:00:30;;;;;;;13.02;11.93;;;;;;;;;;5071636;28;20033;-60
2021/06/10 06:02:56;;;;;;;13.45;12.27;;;;;;;;;;5072360;28;20024;-60
2021/06/10 06:05:21;;;;;;;14.35;13.05;;;;;;;;;;5071692;28;20369;-61
2021/06/10 06:07:46;;;;;;;14.65;13.18;;;;;;;;;;5069173;28;20466;-60
2021/06/10 06:10:12;;;;;;;14.25;13.05;;;;;;;;;;5070517;28;20028;-60
2021/06/10 06:12:40;;;;;;;14.73;13.40;;;;;;;;;;5071858;28;20459;-60
2021/06/10 06:15:06;;;;;;;14.93;13.45;;;;;;;;;;5069031;28;20364;-61
2021/06/10 06:17:31;;;;;;;15.45;14.10;;;;;;;;;;5073239;28;20022;-61
2021/06/10 06:19:59;;;;;;;15.13;13.82;;;;;;;;;;5088411;28;20035;-60
2021/06/10 06:22:26;;;;;;;15.05;13.73;;;;;;;;;;5075115;28;20448;-60
2021/06/10 06:24:52;;;;;;;15.90;14.40;;;;;;;;;;5067699;28;20021;-60
2021/06/10 06:27:18;;;;;;;15.82;14.38;;;;;;;;;;5123817;27;20030;-61
2021/06/10 06:29:43;;;;;;;15.38;14.05;;;;;;;;;;5094764;28;20020;-60
2021/06/10 06:32:08;;;;;;;16.00;14.60;;;;;;;;;;5077344;28;20063;-60
2021/06/10 06:34:33;;;;;;;15.98;14.45;;;;;;;;;;5081630;28;20032;-60
2021/06/10 06:36:58;;;;;;;15.90;14.55;;;;;;;;;;5072672;28;20017;-61
2021/06/10 06:39:24;;;;;;;16.30;14.65;;;;;;;;;;5074457;28;20045;-60
2021/06/10 06:41:49;;;;;;;15.43;14.13;;;;;;;;;;5111393;28;20463;-60
2021/06/10 06:44:14;;;;;;;15.25;13.75;;;;;;;;;;5079375;28;20098;-61
2021/06/10 06:46:40;;;;;;;14.60;13.13;;;;;;;;;;5073471;28;20384;-61
2021/06/10 06:49:05;;;;;;;13.82;12.65;;;;;;;;;;5055614;28;20080;-61
2021/06/10 06:51:30;;;;;;;15.15;13.93;;;;;;;;;;5083937;28;20062;-61
2021/06/10 06:53:56;;;;;;;14.40;13.10;;;;;;;;;;5072163;28;20095;-61
2021/06/10 06:56:22;;;;;;;13.35;12.05;;;;;;;;;;5074701;28;20036;-61
2021/06/10 06:58:48;;;;;;;12.40;11.23;;;;;;;;;;5072239;28;20462;-61
2021/06/10 07:01:13;;;;;;;13.02;11.73;;;;;;;;;;5073691;28;20020;-61
2021/06/10 07:03:38;;;;;;;13.20;12.00;;;;;;;;;;5074806;28;20105;-61
2021/06/10 07:06:04;;;;;;;12.23;11.13;;;;;;;;;;5074363;28;20031;-61
2021/06/10 07:08:30;;;;;;;12.15;10.98;;;;;;;;;;5072153;28;20468;-61
2021/06/10 07:10:56;;;;;;;11.00;9.90;;;;;;;;;;5074118;28;20016;-61
2021/06/10 07:13:24;;;;;;;10.27;9.32;;;;;;;;;;5074634;28;20109;-62
2021/06/10 07:15:50;;;;;;;10.98;10.10;;;;;;;;;;5074278;28;20028;-61
2021/06/10 07:18:15;;;;;;;9.57;8.75;;;;;;;;;;5071642;28;20028;-61
2021/06/10 07:20:41;;;;;;;9.20;8.50;;;;;;;;;;5074432;28;20016;-61
2021/06/10 07:23:06;;;;;;;9.43;8.63;;;;;;;;;;5074988;28;20024;-61
2021/06/10 07:25:31;;;;;;;10.27;9.38;;;;;;;;;;5073982;28;20107;-61
2021/06/10 07:27:56;;;;;;;10.68;9.68;;;;;;;;;;5071806;28;20024;-61
2021/06/10 07:30:22;;;;;;;10.23;9.18;;;;;;;;;;5074158;28;20017;-62
2021/06/10 07:32:47;;;;;;;9.30;8.45;;;;;;;;;;5069581;28;20025;-62
2021/06/10 07:35:13;;;;;;;9.30;8.50;;;;;;;;;;5066704;28;20024;-61
2021/06/10 07:37:38;;;;;;;8.35;7.63;;;;;;;;;;5070764;28;20361;-61
2021/06/10 07:40:04;;;;;;;8.05;7.28;;;;;;;;;;5079875;28;20109;-62
2021/06/10 07:42:29;;;;;;;9.75;8.85;;;;;;;;;;5079014;28;20142;-62
2021/06/10 07:44:54;;;;;;;8.27;7.57;;;;;;;;;;5074477;28;20025;-62
2021/06/10 07:47:20;;;;;;;8.00;7.18;;;;;;;;;;5070597;28;20016;-62
2021/06/10 07:49:45;;;;;;;8.80;8.00;;;;;;;;;;5068581;28;20407;-62
2021/06/10 07:52:10;;;;;;;8.20;7.40;;;;;;;;;;5072565;28;20123;-62
2021/06/10 07:54:36;;;;;;;7.03;6.32;;;;;;;;;;5074192;28;20036;-61
2021/06/10 07:57:02;;;;;;;7.05;6.40;;;;;;;;;;5073994;28;20027;-59
2021/06/10 07:59:27;;;;;;;7.43;6.72;;;;;;;;;;5073801;28;20091;-62
2021/06/10 08:01:53;;;;;;;7.05;6.45;;;;;;;;;;5081860;28;20016;-61
2021/06/10 08:04:18;;;;;;;7.28;6.60;;;;;;;;;;5094337;28;20016;-61
2021/06/10 08:06:43;;;;;;;7.88;7.10;;;;;;;;;;5067183;28;20058;-61
2021/06/10 08:09:09;;;;;;;6.70;6.23;;;;;;;;;;5073399;28;20016;-61
2021/06/10 08:11:35;;;;;;;7.10;6.50;;;;;;;;;;5073534;28;20251;-61
2021/06/10 08:14:00;;;;;;;7.72;6.93;;;;;;;;;;5116334;27;20560;-61
2021/06/10 08:16:26;;;;;;;6.50;5.80;;;;;;;;;;5072070;28;20116;-61
2021/06/10 08:18:51;;;;;;;6.72;6.18;;;;;;;;;;5086590;28;20016;-61
2021/06/10 08:21:16;;;;;;;6.63;6.07;;;;;;;;;;5094076;28;20116;-61
2021/06/10 08:23:41;;;;;;;7.00;6.07;;;;;;;;;;5082107;28;20773;-61
2021/06/10 08:26:08;;;;;;;6.40;5.90;;;;;;;;;;5072880;28;20379;-61
2021/06/10 08:28:33;;;;;;;6.38;5.93;;;;;;;;;;5071535;28;20017;-61
2021/06/10 08:30:59;;;;;;;5.63;4.95;;;;;;;;;;5073517;28;20527;-60
2021/06/10 08:33:25;;;;;;;5.28;4.88;;;;;;;;;;5073421;28;20108;-61
2021/06/10 08:35:51;;;;;;;5.72;5.22;;;;;;;;;;5077746;28;20396;-61
2021/06/10 08:38:17;;;;;;;6.57;5.95;;;;;;;;;;5070771;28;20650;-61
2021/06/10 08:40:42;;;;;;;7.45;5.13;;;;;;;;;;5072879;28;20064;-61
2021/06/10 08:43:08;;;;;;;5.18;4.68;;;;;;;;;;5067449;28;20078;-61
2021/06/10 08:45:34;;;;;;;5.40;4.90;;;;;;;;;;5069580;28;20036;-62
2021/06/10 08:48:00;;;;;;;6.57;5.90;;;;;;;;;;5070838;28;20016;-62
2021/06/10 08:50:27;;;;;;;5.88;5.38;;;;;;;;;;5072923;28;20013;-62
2021/06/10 08:52:56;;;;;;;5.03;4.68;;;;;;;;;;5074221;28;20052;-61
2021/06/10 08:55:22;;;;;;;8.18;6.00;;;;;;;;;;5072727;28;20388;-61
2021/06/10 08:57:47;;;;;;;6.47;5.97;;;;;;;;;;5068659;28;20033;-62
2021/06/10 09:00:14;;;;;;;34.88;8.60;;;;;;;;;;5073034;28;20047;-61
2021/06/10 09:02:39;;;;;;;8.57;6.80;;;;;;;;;;5066087;28;20021;-62
2021/06/10 09:05:06;;;;;;;7.55;6.95;;;;;;;;;;5061698;28;20032;-62
2021/06/10 09:07:33;;;;;;;8.20;7.60;;;;;;;;;;5070878;28;20095;-61
2021/06/10 09:09:58;;;;;;;7.88;7.18;;;;;;;;;;5072767;28;20016;-62
2021/06/10 09:12:23;;;;;;;7.53;6.83;;;;;;;;;;5072390;28;20031;-62
2021/06/10 09:14:57;;;;;;;7.83;7.23;;;;;;;;;;5071123;28;20282;-62
2021/06/10 09:17:35;;;;;;;7.78;7.15;;;;;;;;;;5070546;28;20263;-62
2021/06/10 09:20:02;;;;;;;8.60;7.90;;;;;;;;;;5072744;28;20531;-61
2021/06/10 09:22:28;;;;;;;9.02;8.23;;;;;;;;;;5072250;28;20069;-61
2021/06/10 09:25:16;;;;;;;8.95;8.23;;;;;;;;;;5072203;28;20063;-64
2021/06/10 09:27:52;;;;;;;8.90;8.20;;;;;;;;;;5068212;28;20421;-61
2021/06/10 09:30:31;;;;;;;9.07;8.38;;;;;;;;;;5071179;28;20479;-61
2021/06/10 09:32:56;;;;;;;8.90;8.20;;;;;;;;;;5068744;28;20032;-61
2021/06/10 09:35:32;;;;;;;8.48;7.60;;;;;;;;;;5071467;28;20029;-61
2021/06/10 09:37:59;;;;;;;8.77;8.07;;;;;;;;;;5100477;28;20027;-60
2021/06/10 09:40:24;;;;;;;8.30;7.50;;;;;;;;;;5072299;28;20072;-62
2021/06/10 09:42:50;;;;;;;7.15;6.60;;;;;;;;;;5071639;28;20048;-62
2021/06/10 09:45:17;;;;;;;7.63;6.95;;;;;;;;;;5072318;28;20028;-61
2021/06/10 09:47:47;;;;;;;7.30;6.70;;;;;;;;;;5068598;28;20021;-62
2021/06/10 09:50:16;;;;;;;7.95;7.25;;;;;;;;;;5071885;28;20017;-61
2021/06/10 09:52:44;;;;;;;7.38;6.70;;;;;;;;;;5066443;28;20471;-62
2021/06/10 09:55:09;;;;;;;7.10;6.55;;;;;;;;;;5064105;28;20024;-62
2021/06/10 09:57:35;;;;;;;8.73;6.73;;;;;;;;;;5081317;28;20021;-62
2021/06/10 10:00:00;;;;;;;6.80;6.32;;;;;;;;;;5072107;28;20259;-62
2021/06/10 10:02:27;;;;;;;7.43;6.75;;;;;;;;;;5070933;28;20029;-62
2021/06/10 10:04:59;;;;;;;8.23;6.53;;;;;;;;;;5072209;28;20028;-62
2021/06/10 10:07:29;;;;;;;6.45;5.85;;;;;;;;;;5069583;28;20048;-62
2021/06/10 10:09:58;;;;;;;6.57;6.07;;;;;;;;;;5070428;28;20025;-62
2021/06/10 10:12:30;;;;;;;7.50;6.90;;;;;;;;;;5071472;28;20017;-62
2021/06/10 10:14:56;;;;;;;6.40;5.90;;;;;;;;;;5069438;28;20027;-62
2021/06/10 10:17:22;;;;;;;6.65;6.05;;;;;;;;;;5068093;28;20029;-61
2021/06/10 10:19:48;;;;;;;8.15;7.47;;;;;;;;;;5071767;28;20556;-61
2021/06/10 10:22:13;;;;;;;6.82;6.30;;;;;;;;;;5068234;28;20103;-61
2021/06/10 10:24:39;;;;;;;7.90;7.30;;;;;;;;;;5070070;28;20158;-61
2021/06/10 10:27:05;;;;;;;7.72;6.97;;;;;;;;;;5066090;28;20039;-61
2021/06/10 10:29:31;;;;;;;7.32;6.68;;;;;;;;;;5070997;28;20024;-61
2021/06/10 10:31:57;;;;;;;6.82;5.55;;;;;;;;;;5070147;28;20024;-61
2021/06/10 10:34:28;;;;;;;6.25;5.70;;;;;;;;;;5070722;28;20540;-61
2021/06/10 10:36:53;;;;;;;5.60;5.20;;;;;;;;;;5067910;28;20044;-61
2021/06/10 10:39:27;;;;;;;7.28;6.68;;;;;;;;;;5071206;28;20075;-62
2021/06/10 10:41:53;;;;;;;6.60;5.95;;;;;;;;;;5071126;28;20095;-62
2021/06/10 10:44:24;;;;;;;5.78;5.38;;;;;;;;;;5070443;28;20039;-62
2021/06/10 10:47:03;;;;;;;5.45;4.95;;;;;;;;;;5069771;28;20112;-61
2021/06/10 10:49:29;;;;;;;5.03;4.63;;;;;;;;;;5071864;28;20557;-62
2021/06/10 10:52:15;;;;;;;4.47;4.18;;;;;;;;;;5071160;28;20021;-62
2021/06/10 10:54:41;;;;;;;3.95;3.65;;;;;;;;;;5071203;28;20039;-62
2021/06/10 10:57:26;;;;;;;5.03;4.63;;;;;;;;;;5069296;28;20024;-61
2021/06/10 10:59:51;;;;;;;4.55;4.22;;;;;;;;;;5069758;28;20426;-62
2021/06/10 11:02:18;;;;;;;5.03;4.53;;;;;;;;;;5069451;28;20016;-62
2021/06/10 11:04:48;;;;;;;5.30;4.80;;;;;;;;;;5071369;28;20081;-62
2021/06/10 11:07:32;;;;;;;5.30;4.68;;;;;;;;;;5069756;28;20387;-62
2021/06/10 11:09:57;;;;;;;4.35;4.10;;;;;;;;;;5072374;28;20059;-62
2021/06/10 11:12:40;;;;;;;4.20;4.00;;;;;;;;;;5064900;28;20049;-62
2021/06/10 11:15:06;;;;;;;4.82;4.47;;;;;;;;;;5072004;28;20266;-62
2021/06/10 11:17:42;;;;;;;4.25;3.95;;;;;;;;;;5071068;28;20131;-62
2021/06/10 11:20:10;;;;;;;4.43;4.13;;;;;;;;;;5074786;28;20483;-62
2021/06/10 11:22:36;;;;;;;4.90;4.43;;;;;;;;;;5113787;27;20089;-62
2021/06/10 11:25:02;;;;;;;3.65;3.35;;;;;;;;;;5081637;28;20472;-62
2021/06/10 11:27:35;;;;;;;4.47;4.20;;;;;;;;;;5067905;28;20101;-62
2021/06/10 11:30:14;;;;;;;3.30;3.00;;;;;;;;;;5073141;28;20099;-62
2021/06/10 11:32:58;;;;;;;2.97;2.78;;;;;;;;;;5106952;28;20123;-62
2021/06/10 11:35:27;;;;;;;3.67;3.38;;;;;;;;;;5074521;28;20123;-59
2021/06/10 11:37:52;;;;;;;4.10;3.83;;;;;;;;;;5072634;28;20479;-62
2021/06/10 11:40:18;;;;;;;3.28;3.08;;;;;;;;;;5074530;28;20303;-62
2021/06/10 11:42:44;;;;;;;3.40;3.20;;;;;;;;;;5073392;28;20028;-62
2021/06/10 11:45:09;;;;;;;3.40;3.20;;;;;;;;;;5073224;28;20031;-60
2021/06/10 11:47:36;;;;;;;2.60;2.45;;;;;;;;;;5072196;28;20039;-60
2021/06/10 11:50:02;;;;;;;2.60;2.50;;;;;;;;;;5074613;28;20489;-61
2021/06/10 11:52:47;;;;;;;2.72;2.53;;;;;;;;;;5072583;28;20103;-60
2021/06/10 11:55:12;;;;;;;2.88;2.67;;;;;;;;;;5074057;28;20082;-61
2021/06/10 11:57:38;;;;;;;2.40;2.30;;;;;;;;;;5070835;28;20021;-61
2021/06/10 12:00:04;;;;;;;2.20;2.10;;;;;;;;;;5074051;28;20032;-61
2021/06/10 12:02:30;;;;;;;2.58;2.38;;;;;;;;;;5073319;28;20434;-61
2021/06/10 12:05:09;;;;;;;2.73;2.43;;;;;;;;;;5083962;28;20479;-60
2021/06/10 12:07:34;;;;;;;2.35;2.15;;;;;;;;;;5070828;28;20009;-62
2021/06/10 12:10:08;;;;;;;2.40;2.30;;;;;;;;;;5073886;28;20031;-60
2021/06/10 12:12:42;;;;;;;2.35;2.10;;;;;;;;;;5073452;28;20013;-60
2021/06/10 12:15:09;;;;;;;2.85;2.28;;;;;;;;;;5072261;28;20027;-60
2021/06/10 12:17:49;;;;;;;2.25;2.17;;;;;;;;;;5069265;28;20078;-61
2021/06/10 12:20:18;;;;;;;6.05;2.20;;;;;;;;;;5073228;28;20502;-61
2021/06/10 12:22:44;;;;;;;2.38;2.17;;;;;;;;;;5073207;28;20017;-61
2021/06/10 12:25:17;;;;;;;2.83;2.35;;;;;;;;;;5072144;28;20387;-60
2021/06/10 12:27:42;;;;;;;2.60;2.40;;;;;;;;;;5070926;28;20024;-61
2021/06/10 12:30:40;;;;;;;3.03;2.58;;;;;;;;;;5071583;28;20020;-63
2021/06/10 12:33:16;;;;;;;3.15;2.50;;;;;;;;;;5071782;28;20094;-60
2021/06/10 12:35:45;;;;;;;3.47;3.03;;;;;;;;;;5073270;28;20031;-61
2021/06/10 12:38:10;;;;;;;4.32;2.72;;;;;;;;;;5071171;28;20027;-60
2021/06/10 12:40:37;;;;;;;3.30;2.95;;;;;;;;;;5072556;28;20041;-60
2021/06/10 12:43:15;;;;;;;3.95;3.65;;;;;;;;;;5073252;28;20376;-60
2021/06/10 12:45:40;;;;;;;3.40;3.10;;;;;;;;;;5073134;28;20024;-61
2021/06/10 12:48:19;;;;;;;3.13;2.92;;;;;;;;;;5069983;28;20016;-61
2021/06/10 12:50:44;;;;;;;3.83;2.95;;;;;;;;;;5072608;28;20113;-61
2021/06/10 12:53:09;;;;;;;3.40;3.10;;;;;;;;;;5073017;28;20200;-61
2021/06/10 12:55:35;;;;;;;3.80;3.00;;;;;;;;;;5072813;28;20020;-61
2021/06/10 12:58:00;;;;;;;3.60;3.38;;;;;;;;;;5068466;28;20690;-61
2021/06/10 13:00:31;;;;;;;3.20;3.00;;;;;;;;;;5072506;28;20052;-61
2021/06/10 13:03:01;;;;;;;3.97;3.65;;;;;;;;;;5073078;28;20047;-60
2021/06/10 13:05:26;;;;;;;4.57;4.28;;;;;;;;;;5072307;28;20032;-60
2021/06/10 13:07:54;;;;;;;5.10;4.00;;;;;;;;;;5070636;28;20044;-61
2021/06/10 13:10:40;;;;;;;4.10;3.80;;;;;;;;;;5071904;28;20016;-61
2021/06/10 13:13:06;;;;;;;6.72;3.65;;;;;;;;;;5072438;28;20023;-61
2021/06/10 13:15:40;;;;;;;3.85;3.35;;;;;;;;;;5067049;28;20124;-61
2021/06/10 13:18:10;;;;;;;5.38;4.10;;;;;;;;;;5062638;28;20024;-61
2021/06/10 13:20:44;;;;;;;4.05;3.08;;;;;;;;;;5071751;28;20016;-61
2021/06/10 13:23:24;;;;;;;4.78;3.15;;;;;;;;;;5060955;28;20384;-60
2021/06/10 13:26:04;;;;;;;4.00;3.70;;;;;;;;;;5075936;28;20021;-60
2021/06/10 13:28:29;;;;;;;3.25;2.95;;;;;;;;;;5070050;28;20012;-61
2021/06/10 13:31:13;;;;;;;4.10;2.80;;;;;;;;;;5074266;28;20031;-61
2021/06/10 13:33:38;;;;;;;3.30;2.70;;;;;;;;;;5064463;28;20024;-61
2021/06/10 13:36:11;;;;;;;3.63;3.13;;;;;;;;;;5063472;28;20021;-61
2021/06/10 13:38:37;;;;;;;3.40;3.00;;;;;;;;;;5069689;28;20031;-61
2021/06/10 13:41:04;;;;;;;3.30;2.75;;;;;;;;;;5071974;28;20021;-61
2021/06/10 13:43:32;;;;;;;4.65;2.75;;;;;;;;;;5086432;28;20023;-61
2021/06/10 13:45:58;;;;;;;2.92;2.70;;;;;;;;;;5074297;28;20032;-60
2021/06/10 13:48:24;;;;;;;2.67;2.47;;;;;;;;;;5069446;28;20092;-61
2021/06/10 13:50:49;;;;;;;2.70;2.50;;;;;;;;;;5072613;28;20039;-61
2021/06/10 13:53:14;;;;;;;2.80;2.60;;;;;;;;;;5080332;28;20026;-61
2021/06/10 13:55:39;;;;;;;3.83;2.57;;;;;;;;;;5072801;28;20025;-61
2021/06/10 13:58:05;;;;;;;4.13;2.78;;;;;;;;;;5079971;28;20265;-61
2021/06/10 14:00:30;;;;;;;3.80;2.90;;;;;;;;;;5082744;28;20013;-61
2021/06/10 14:02:55;;;;;;;2.90;2.63;;;;;;;;;;5071548;28;20724;-61
2021/06/10 14:05:20;;;;;;;3.83;2.53;;;;;;;;;;5070214;28;20696;-61
2021/06/10 14:07:45;;;;;;;3.17;2.10;;;;;;;;;;5069827;28;20803;-61
2021/06/10 14:10:11;;;;;;;3.07;2.60;;;;;;;;;;5104085;28;20255;-62
2021/06/10 14:12:36;;;;;;;2.90;2.60;;;;;;;;;;5070443;28;20255;-63
2021/06/10 14:15:01;;;;;;;4.30;2.90;;;;;;;;;;5071339;28;20453;-60
2021/06/10 14:17:26;;;;;;;2.60;2.13;;;;;;;;;;5068923;28;20661;-61
2021/06/10 14:19:52;;;;;;;3.27;2.50;;;;;;;;;;5070586;28;20027;-61
2021/06/10 14:22:17;;;;;;;2.27;2.07;;;;;;;;;;5071947;28;20247;-62
2021/06/10 14:24:42;;;;;;;3.15;2.40;;;;;;;;;;5070772;28;20274;-62
2021/06/10 14:27:10;;;;;;;2.30;2.10;;;;;;;;;;5069373;28;20065;-62
2021/06/10 14:34:45;;;;;;;2.63;2.42;;;;;;;;;;5071245;28;20485;-62
2021/06/10 14:37:10;;;;;;;2.30;2.10;;;;;;;;;;5068260;28;20032;-62
2021/06/10 14:39:36;;;;;;;2.67;2.40;;;;;;;;;;5071628;28;20171;-62
2021/06/10 14:42:01;;;;;;;2.25;1.95;;;;;;;;;;5075502;28;20099;-62
2021/06/10 14:44:26;;;;;;;2.78;2.65;;;;;;;;;;5073753;28;20372;-62